Time;durP1;ratioP1;P1;durP2;ratioP2;P2;SDS_P1;SDS_P2;PMS_P1;PMS_P2;Temp;Humidity;BMP_temperature;BMP_pressure;BME280_temperature;BME280_humidity;BME280_pressure;Samples;Min_cycle;Max_cycle;Signal;HPM_P1;HPM_P2
2022/04/04 00:01:19;;;;;;;49.83;25.02;;;;;;;;;;6370405;27;20020;-67
2022/04/04 00:04:20;;;;;;;54.08;22.70;;;;;;;;;;6370578;27;20296;-67
2022/04/04 00:07:20;;;;;;;49.25;22.85;;;;;;;;;;6370337;27;20041;-67
2022/04/04 00:10:20;;;;;;;44.63;19.97;;;;;;;;;;6370312;27;20015;-67
2022/04/04 00:13:20;;;;;;;52.65;21.90;;;;;;;;;;6369938;27;20283;-68
2022/04/04 00:16:21;;;;;;;35.80;15.30;;;;;;;;;;6370086;27;20015;-67
2022/04/04 00:19:22;;;;;;;54.28;24.02;;;;;;;;;;6370345;27;20022;-67
2022/04/04 00:22:22;;;;;;;58.10;24.30;;;;;;;;;;6370217;27;20031;-67
2022/04/04 00:25:23;;;;;;;52.17;22.67;;;;;;;;;;6369713;27;20357;-67
2022/04/04 00:28:23;;;;;;;51.22;22.95;;;;;;;;;;6365809;27;20486;-67
2022/04/04 00:31:23;;;;;;;46.70;20.52;;;;;;;;;;6344013;28;20056;-67
2022/04/04 00:34:24;;;;;;;51.85;23.88;;;;;;;;;;6326216;28;20018;-67
2022/04/04 00:37:24;;;;;;;51.47;21.88;;;;;;;;;;6344145;28;20084;-67
2022/04/04 00:40:25;;;;;;;48.97;21.00;;;;;;;;;;6358117;27;20020;-67
2022/04/04 00:43:26;;;;;;;46.90;23.47;;;;;;;;;;6369261;27;20264;-67
2022/04/04 00:46:26;;;;;;;48.03;19.23;;;;;;;;;;6369433;27;20027;-67
2022/04/04 00:49:26;;;;;;;45.88;21.70;;;;;;;;;;6369401;27;20018;-67
2022/04/04 00:52:27;;;;;;;43.80;21.02;;;;;;;;;;6369281;27;20043;-68
2022/04/04 00:55:27;;;;;;;46.42;20.08;;;;;;;;;;6369090;27;20405;-67
2022/04/04 00:58:28;;;;;;;49.05;21.83;;;;;;;;;;6350819;27;20019;-67
2022/04/04 01:01:28;;;;;;;38.40;18.13;;;;;;;;;;6369212;27;20787;-67
2022/04/04 01:04:28;;;;;;;41.22;19.83;;;;;;;;;;6369332;27;20098;-67
2022/04/04 01:07:29;;;;;;;34.80;17.23;;;;;;;;;;6369358;27;20023;-67
2022/04/04 01:10:30;;;;;;;33.53;16.33;;;;;;;;;;6368495;27;20404;-67
2022/04/04 01:13:30;;;;;;;34.35;16.92;;;;;;;;;;6368667;27;20152;-67
2022/04/04 01:16:30;;;;;;;40.17;19.50;;;;;;;;;;6368543;27;20015;-67
2022/04/04 01:19:31;;;;;;;31.95;15.13;;;;;;;;;;6368364;27;20390;-67
2022/04/04 01:22:31;;;;;;;29.02;13.60;;;;;;;;;;6368629;27;20019;-67
2022/04/04 01:25:32;;;;;;;44.50;20.02;;;;;;;;;;6368759;27;20096;-67
2022/04/04 01:28:33;;;;;;;29.85;15.50;;;;;;;;;;6368648;27;20064;-67
2022/04/04 01:31:33;;;;;;;34.22;15.55;;;;;;;;;;6367948;27;20051;-67
2022/04/04 01:34:33;;;;;;;36.33;17.05;;;;;;;;;;6368428;27;20015;-68
2022/04/04 01:37:33;;;;;;;27.15;13.15;;;;;;;;;;6369210;27;20041;-68
2022/04/04 01:40:34;;;;;;;26.85;16.23;;;;;;;;;;6368195;27;20497;-67
2022/04/04 01:43:34;;;;;;;19.75;9.95;;;;;;;;;;6368630;28;20023;-67
2022/04/04 01:46:34;;;;;;;27.80;13.20;;;;;;;;;;6368326;28;20015;-67
2022/04/04 01:49:34;;;;;;;28.05;16.58;;;;;;;;;;6368436;28;20165;-67
2022/04/04 01:52:34;;;;;;;22.30;11.67;;;;;;;;;;6367981;28;20023;-67
2022/04/04 01:55:35;;;;;;;26.88;12.90;;;;;;;;;;6368268;28;20340;-67
2022/04/04 01:58:35;;;;;;;19.58;12.52;;;;;;;;;;6368181;28;20047;-67
2022/04/04 02:01:36;;;;;;;26.30;14.07;;;;;;;;;;6368407;28;20008;-67
2022/04/04 02:04:36;;;;;;;26.73;13.10;;;;;;;;;;6368645;28;20487;-67
2022/04/04 02:07:37;;;;;;;35.05;14.10;;;;;;;;;;6368033;28;20023;-67
2022/04/04 02:10:37;;;;;;;27.92;13.15;;;;;;;;;;6368433;27;20024;-67
2022/04/04 02:13:37;;;;;;;25.45;12.43;;;;;;;;;;6367805;28;20023;-67
2022/04/04 02:16:38;;;;;;;12.40;6.80;;;;;;;;;;6368064;28;20022;-67
2022/04/04 02:19:38;;;;;;;24.40;12.77;;;;;;;;;;6368070;28;20593;-67
2022/04/04 02:22:38;;;;;;;22.57;10.53;;;;;;;;;;6367644;28;20019;-67
2022/04/04 02:25:38;;;;;;;23.23;11.13;;;;;;;;;;6367893;28;20353;-67
2022/04/04 02:28:38;;;;;;;27.00;13.40;;;;;;;;;;6366099;28;20047;-67
2022/04/04 02:31:39;;;;;;;20.10;11.73;;;;;;;;;;6334549;27;20129;-67
2022/04/04 02:34:39;;;;;;;20.58;8.93;;;;;;;;;;6369626;27;20439;-67
2022/04/04 02:37:39;;;;;;;17.00;9.02;;;;;;;;;;6367940;27;20023;-67
2022/04/04 02:40:40;;;;;;;18.65;9.68;;;;;;;;;;6361284;27;20023;-68
2022/04/04 02:43:40;;;;;;;19.70;10.40;;;;;;;;;;6369878;27;20094;-67
2022/04/04 02:46:40;;;;;;;13.35;7.53;;;;;;;;;;6372533;27;20027;-67
2022/04/04 02:49:41;;;;;;;22.90;11.75;;;;;;;;;;6364135;27;20043;-67
2022/04/04 02:52:41;;;;;;;27.45;11.35;;;;;;;;;;6346663;28;20055;-67
2022/04/04 02:59:01;;;;;;;21.75;12.32;;;;;;;;;;6372452;27;20482;-67
2022/04/04 03:02:01;;;;;;;19.55;10.52;;;;;;;;;;6371645;27;20096;-68
2022/04/04 03:05:01;;;;;;;17.73;5.88;;;;;;;;;;6371986;27;20026;-67
2022/04/04 03:08:02;;;;;;;25.35;12.30;;;;;;;;;;6371909;27;20459;-67
2022/04/04 03:11:02;;;;;;;25.27;11.48;;;;;;;;;;6371630;27;20015;-67
2022/04/04 03:14:03;;;;;;;26.42;9.93;;;;;;;;;;6371379;27;20099;-67
2022/04/04 03:17:03;;;;;;;22.00;11.48;;;;;;;;;;6371345;27;20019;-67
2022/04/04 03:20:05;;;;;;;26.13;11.88;;;;;;;;;;6371913;27;20034;-67
2022/04/04 03:23:06;;;;;;;15.80;9.20;;;;;;;;;;6371211;27;20020;-67
2022/04/04 03:26:08;;;;;;;19.50;10.10;;;;;;;;;;6371437;27;20023;-67
2022/04/04 03:29:08;;;;;;;23.48;11.73;;;;;;;;;;6371665;27;20027;-67
2022/04/04 03:32:08;;;;;;;19.08;9.77;;;;;;;;;;6371028;27;20105;-68
2022/04/04 03:35:09;;;;;;;25.90;11.38;;;;;;;;;;6371101;27;20061;-68
2022/04/04 03:38:11;;;;;;;25.40;11.15;;;;;;;;;;6371596;27;20023;-67
2022/04/04 03:41:11;;;;;;;17.92;10.10;;;;;;;;;;6370213;27;20493;-67
2022/04/04 03:44:12;;;;;;;25.67;10.25;;;;;;;;;;6370508;27;20023;-67
2022/04/04 03:47:12;;;;;;;24.40;11.40;;;;;;;;;;6371073;27;20049;-67
2022/04/04 03:50:13;;;;;;;28.65;11.98;;;;;;;;;;6371139;27;20026;-67
2022/04/04 03:53:14;;;;;;;22.67;11.40;;;;;;;;;;6370514;27;20023;-67
2022/04/04 03:56:15;;;;;;;24.08;11.45;;;;;;;;;;6370647;27;20713;-67
2022/04/04 03:59:15;;;;;;;21.65;7.40;;;;;;;;;;6370457;27;20026;-66
2022/04/04 04:02:15;;;;;;;14.10;6.95;;;;;;;;;;6350761;27;20467;-67
2022/04/04 04:05:15;;;;;;;20.88;12.30;;;;;;;;;;6345251;28;20478;-67
2022/04/04 04:08:16;;;;;;;27.80;12.02;;;;;;;;;;6345400;28;20382;-66
2022/04/04 04:11:17;;;;;;;20.85;10.05;;;;;;;;;;6365834;27;20063;-67
2022/04/04 04:14:17;;;;;;;24.75;11.30;;;;;;;;;;6369169;27;20390;-66
2022/04/04 04:17:21;;;;;;;23.67;11.77;;;;;;;;;;6369245;27;20019;-66
2022/04/04 04:20:25;;;;;;;22.58;9.88;;;;;;;;;;6370385;27;20019;-66
2022/04/04 04:23:26;;;;;;;27.38;12.50;;;;;;;;;;6369741;27;20030;-66
2022/04/04 04:26:26;;;;;;;22.55;12.73;;;;;;;;;;6351804;27;20492;-66
2022/04/04 04:29:26;;;;;;;18.10;10.80;;;;;;;;;;6369930;27;20759;-67
2022/04/04 04:32:26;;;;;;;15.45;8.07;;;;;;;;;;6369529;27;20300;-66
2022/04/04 04:35:27;;;;;;;25.00;13.35;;;;;;;;;;6370181;27;20420;-66
2022/04/04 04:38:27;;;;;;;23.85;13.00;;;;;;;;;;6369978;27;20049;-66
2022/04/04 04:41:27;;;;;;;20.50;10.50;;;;;;;;;;6369793;27;20110;-66
2022/04/04 04:44:27;;;;;;;30.77;12.02;;;;;;;;;;6369419;27;20386;-66
2022/04/04 04:47:28;;;;;;;34.33;14.88;;;;;;;;;;6362348;27;20370;-66
2022/04/04 04:50:29;;;;;;;18.75;10.57;;;;;;;;;;6369427;27;20047;-66
2022/04/04 04:53:29;;;;;;;26.02;10.63;;;;;;;;;;6368604;27;20015;-66
2022/04/04 04:56:29;;;;;;;26.77;13.77;;;;;;;;;;6369040;27;20023;-66
2022/04/04 04:59:30;;;;;;;21.23;11.10;;;;;;;;;;6369534;27;20528;-66
2022/04/04 05:02:30;;;;;;;26.08;13.88;;;;;;;;;;6369049;27;20031;-66
2022/04/04 05:05:31;;;;;;;19.30;11.32;;;;;;;;;;6368959;27;20027;-66
2022/04/04 05:08:31;;;;;;;31.98;15.38;;;;;;;;;;6368893;27;20071;-66
2022/04/04 05:11:31;;;;;;;26.50;14.20;;;;;;;;;;6368858;27;20041;-66
2022/04/04 05:14:32;;;;;;;36.35;17.00;;;;;;;;;;6368793;27;20023;-66
2022/04/04 05:17:32;;;;;;;30.38;14.05;;;;;;;;;;6369163;27;20473;-66
2022/04/04 05:20:32;;;;;;;23.25;11.10;;;;;;;;;;6368879;27;20051;-66
2022/04/04 05:23:34;;;;;;;18.10;9.10;;;;;;;;;;6365025;27;20102;-66
2022/04/04 05:26:34;;;;;;;24.48;13.85;;;;;;;;;;6368679;27;20578;-66
2022/04/04 05:29:35;;;;;;;29.83;13.60;;;;;;;;;;6368940;27;20482;-67
2022/04/04 05:32:35;;;;;;;29.60;15.98;;;;;;;;;;6367830;27;20051;-67
2022/04/04 05:35:36;;;;;;;17.80;8.95;;;;;;;;;;6357800;27;20496;-66
2022/04/04 05:38:36;;;;;;;20.83;11.85;;;;;;;;;;6355966;27;20031;-66
2022/04/04 05:41:37;;;;;;;19.33;9.00;;;;;;;;;;6368889;27;20016;-66
2022/04/04 05:44:37;;;;;;;10.97;6.10;;;;;;;;;;6368457;27;20030;-66
2022/04/04 05:47:38;;;;;;;15.25;9.40;;;;;;;;;;6352642;28;20311;-66
2022/04/04 05:50:38;;;;;;;25.88;10.88;;;;;;;;;;6342759;27;20077;-66
2022/04/04 05:53:39;;;;;;;10.75;5.47;;;;;;;;;;6343747;28;20039;-67
2022/04/04 05:56:39;;;;;;;22.80;10.35;;;;;;;;;;6347022;28;20019;-66
2022/04/04 05:59:39;;;;;;;18.40;8.18;;;;;;;;;;6342796;28;20015;-66
2022/04/04 06:02:40;;;;;;;20.40;10.30;;;;;;;;;;6343972;28;20399;-66
2022/04/04 06:05:41;;;;;;;15.25;8.88;;;;;;;;;;6356075;27;20363;-66
2022/04/04 06:08:42;;;;;;;16.15;9.13;;;;;;;;;;6351456;27;20023;-66
2022/04/04 06:11:42;;;;;;;22.05;8.95;;;;;;;;;;6350032;27;20098;-66
2022/04/04 06:14:42;;;;;;;22.17;9.63;;;;;;;;;;6348875;27;20028;-66
2022/04/04 06:17:44;;;;;;;16.58;9.50;;;;;;;;;;6371831;27;20102;-66
2022/04/04 06:20:44;;;;;;;14.45;8.18;;;;;;;;;;6368906;27;20061;-66
2022/04/04 06:23:44;;;;;;;10.63;6.03;;;;;;;;;;6357325;27;20011;-66
2022/04/04 06:26:44;;;;;;;19.38;9.02;;;;;;;;;;6364926;27;20094;-66
2022/04/04 06:29:46;;;;;;;15.50;7.57;;;;;;;;;;6372973;27;20053;-66
2022/04/04 06:32:46;;;;;;;21.00;9.30;;;;;;;;;;6353336;27;20044;-66
2022/04/04 06:35:48;;;;;;;15.95;7.57;;;;;;;;;;6345552;27;20314;-66
2022/04/04 06:38:50;;;;;;;13.77;7.72;;;;;;;;;;6348564;27;20084;-66
2022/04/04 06:41:51;;;;;;;20.67;10.15;;;;;;;;;;6371402;27;20381;-67
2022/04/04 06:44:54;;;;;;;14.15;7.25;;;;;;;;;;6348345;27;20020;-67
2022/04/04 06:47:54;;;;;;;14.98;6.95;;;;;;;;;;6346247;27;20510;-67
2022/04/04 06:50:54;;;;;;;23.30;10.65;;;;;;;;;;6363885;27;20016;-67
2022/04/04 06:53:54;;;;;;;20.97;9.13;;;;;;;;;;6344393;28;20025;-67
2022/04/04 06:56:55;;;;;;;13.70;6.32;;;;;;;;;;6361294;27;20754;-68
2022/04/04 06:59:55;;;;;;;10.88;5.47;;;;;;;;;;6365773;27;20090;-68
2022/04/04 07:02:58;;;;;;;10.60;7.20;;;;;;;;;;6351753;27;20023;-68
2022/04/04 07:05:58;;;;;;;;;;;;;;;;;;6349806;27;20274;-68
2022/04/04 07:08:58;;;;;;;30.58;11.27;;;;;;;;;;6344897;27;19911;-68
2022/04/04 07:11:58;;;;;;;15.33;7.63;;;;;;;;;;6346882;27;20309;-68
2022/04/04 07:14:58;;;;;;;11.53;6.67;;;;;;;;;;6356485;27;20782;-68
2022/04/04 07:17:59;;;;;;;14.07;7.40;;;;;;;;;;6363851;27;20249;-68
2022/04/04 07:20:59;;;;;;;10.88;6.65;;;;;;;;;;6363460;27;20281;-68
2022/04/04 07:23:59;;;;;;;16.07;7.63;;;;;;;;;;6363417;27;20065;-68
2022/04/04 07:26:59;;;;;;;10.90;6.45;;;;;;;;;;6366861;27;20293;-68
2022/04/04 07:30:00;;;;;;;11.90;6.22;;;;;;;;;;6368612;27;20015;-68
2022/04/04 07:33:03;;;;;;;17.05;8.20;;;;;;;;;;6370663;27;20043;-67
2022/04/04 07:36:04;;;;;;;13.60;7.20;;;;;;;;;;6371553;27;20094;-67
2022/04/04 07:39:04;;;;;;;20.52;10.13;;;;;;;;;;6370089;27;20042;-67
2022/04/04 07:42:05;;;;;;;16.63;8.25;;;;;;;;;;6369439;27;20023;-68
2022/04/04 07:45:07;;;;;;;17.88;10.02;;;;;;;;;;6368155;27;20549;-67
2022/04/04 07:48:08;;;;;;;17.10;9.33;;;;;;;;;;6365366;27;21684;-67
2022/04/04 07:51:08;;;;;;;13.00;7.60;;;;;;;;;;6345722;28;20027;-67
2022/04/04 07:54:09;;;;;;;16.80;9.40;;;;;;;;;;6347153;27;20057;-68
2022/04/04 07:57:09;;;;;;;17.83;9.60;;;;;;;;;;6369754;27;20363;-67
2022/04/04 08:00:11;;;;;;;17.95;10.90;;;;;;;;;;6371221;27;20366;-68
2022/04/04 08:03:11;;;;;;;21.23;10.07;;;;;;;;;;6370584;27;20019;-67
2022/04/04 08:06:11;;;;;;;13.85;9.27;;;;;;;;;;6370794;27;20355;-67
2022/04/04 08:09:12;;;;;;;15.07;8.90;;;;;;;;;;6364425;27;20027;-67
2022/04/04 08:12:12;;;;;;;27.00;12.80;;;;;;;;;;6357002;27;20023;-67
2022/04/04 08:15:13;;;;;;;20.83;12.10;;;;;;;;;;6365054;27;20298;-68
2022/04/04 08:18:13;;;;;;;15.13;8.68;;;;;;;;;;6367813;27;20064;-68
2022/04/04 08:21:15;;;;;;;14.40;7.43;;;;;;;;;;6368069;27;20024;-67
2022/04/04 08:24:16;;;;;;;22.52;10.30;;;;;;;;;;6364137;27;20023;-67
2022/04/04 08:27:17;;;;;;;18.60;9.30;;;;;;;;;;6353179;27;20119;-67
2022/04/04 08:30:17;;;;;;;10.63;6.78;;;;;;;;;;6367702;27;20364;-67
2022/04/04 08:33:18;;;;;;;19.58;8.25;;;;;;;;;;6366629;27;20096;-67
2022/04/04 08:36:18;;;;;;;18.88;9.00;;;;;;;;;;6361708;27;20021;-67
2022/04/04 08:39:19;;;;;;;13.98;8.80;;;;;;;;;;6366897;27;20012;-67
2022/04/04 08:42:26;;;;;;;10.03;7.03;;;;;;;;;;6367333;27;20023;-67
2022/04/04 08:45:27;;;;;;;14.10;7.05;;;;;;;;;;6366397;27;20628;-67
2022/04/04 08:48:29;;;;;;;13.98;7.15;;;;;;;;;;6367234;27;20026;-67
2022/04/04 08:51:30;;;;;;;12.93;6.30;;;;;;;;;;6364153;27;20050;-67
2022/04/04 08:54:30;;;;;;;18.65;8.38;;;;;;;;;;6366480;27;20484;-67
2022/04/04 08:57:30;;;;;;;10.30;6.43;;;;;;;;;;6366773;27;20247;-67
2022/04/04 09:00:31;;;;;;;13.57;7.38;;;;;;;;;;6363869;27;20019;-67
2022/04/04 09:03:32;;;;;;;15.05;7.55;;;;;;;;;;6361174;27;20019;-67
2022/04/04 09:06:45;;;;;;;15.35;9.20;;;;;;;;;;6366195;27;20027;-67
2022/04/04 09:09:49;;;;;;;9.02;6.80;;;;;;;;;;6364464;27;20019;-67
2022/04/04 09:12:49;;;;;;;16.27;8.65;;;;;;;;;;6364698;27;20019;-67
2022/04/04 09:15:49;;;;;;;15.68;8.38;;;;;;;;;;6367010;27;20437;-67
2022/04/04 09:18:49;;;;;;;10.05;6.60;;;;;;;;;;6363636;27;20047;-67
2022/04/04 09:21:50;;;;;;;14.75;7.65;;;;;;;;;;6366552;27;20003;-67
2022/04/04 09:24:51;;;;;;;14.47;6.80;;;;;;;;;;6363376;27;20015;-67
2022/04/04 09:27:52;;;;;;;13.10;7.03;;;;;;;;;;6366054;27;20382;-67
2022/04/04 09:31:07;;;;;;;8.80;5.93;;;;;;;;;;6366046;27;20051;-67
2022/04/04 09:34:07;;;;;;;14.35;6.18;;;;;;;;;;6343501;27;20614;-67
2022/04/04 09:37:14;;;;;;;17.90;6.57;;;;;;;;;;6363354;27;20504;-67
2022/04/04 09:40:19;;;;;;;13.82;6.50;;;;;;;;;;6365563;27;20256;-67
2022/04/04 09:43:19;;;;;;;14.18;7.20;;;;;;;;;;6364884;27;20166;-67
2022/04/04 09:46:20;;;;;;;11.23;6.70;;;;;;;;;;6363104;27;20107;-67
2022/04/04 09:49:20;;;;;;;12.48;6.25;;;;;;;;;;6358578;28;20253;-67
2022/04/04 09:52:21;;;;;;;15.13;6.57;;;;;;;;;;6359780;28;20094;-67
2022/04/04 09:55:28;;;;;;;9.37;5.30;;;;;;;;;;6361550;28;20114;-67
2022/04/04 09:58:29;;;;;;;11.07;5.15;;;;;;;;;;6364569;28;21010;-67
2022/04/04 10:01:30;;;;;;;11.80;6.07;;;;;;;;;;6362259;28;20015;-67
2022/04/04 10:04:31;;;;;;;8.90;5.43;;;;;;;;;;6362484;28;20249;-67
2022/04/04 10:07:31;;;;;;;14.93;5.57;;;;;;;;;;6327868;28;20088;-67
2022/04/04 10:10:31;;;;;;;5.97;3.90;;;;;;;;;;6355697;27;20106;-67
2022/04/04 10:13:32;;;;;;;8.43;6.30;;;;;;;;;;6357960;28;20077;-68
2022/04/04 10:16:33;;;;;;;8.05;5.30;;;;;;;;;;6367660;28;20060;-67
2022/04/04 10:19:33;;;;;;;9.30;5.53;;;;;;;;;;6352143;28;20028;-67
2022/04/04 10:22:34;;;;;;;7.65;4.78;;;;;;;;;;6351600;28;20501;-67
2022/04/04 10:25:34;;;;;;;7.35;4.45;;;;;;;;;;6351872;28;20106;-67
2022/04/04 10:28:36;;;;;;;11.50;5.75;;;;;;;;;;6347909;28;20007;-68
2022/04/04 10:31:41;;;;;;;11.35;5.18;;;;;;;;;;6363086;28;20498;-67
2022/04/04 10:34:44;;;;;;;6.45;4.50;;;;;;;;;;6363187;28;20385;-65
2022/04/04 10:37:45;;;;;;;7.72;4.75;;;;;;;;;;6365333;28;20027;-66
2022/04/04 10:40:46;;;;;;;10.98;5.38;;;;;;;;;;6358456;28;20007;-66
2022/04/04 10:43:48;;;;;;;6.13;4.03;;;;;;;;;;6339062;28;20020;-66
2022/04/04 10:46:49;;;;;;;11.30;5.15;;;;;;;;;;6343194;28;20048;-67
2022/04/04 10:49:50;;;;;;;9.35;5.00;;;;;;;;;;6349338;27;20098;-66
2022/04/04 10:52:52;;;;;;;9.25;4.80;;;;;;;;;;6365399;27;20359;-66
2022/04/04 10:55:54;;;;;;;8.57;3.97;;;;;;;;;;6370401;27;20561;-66
2022/04/04 10:59:14;;;;;;;11.77;4.63;;;;;;;;;;6357945;27;20030;-66
2022/04/04 11:02:18;;;;;;;10.20;4.95;;;;;;;;;;6356652;27;20020;-66
2022/04/04 11:08:38;;;;;;;8.82;4.97;;;;;;;;;;6346363;28;20035;-66
2022/04/04 11:11:42;;;;;;;8.60;4.15;;;;;;;;;;6350425;27;20524;-66
2022/04/04 11:14:43;;;;;;;6.75;4.35;;;;;;;;;;6346036;28;20054;-66
2022/04/04 11:17:57;;;;;;;8.77;4.47;;;;;;;;;;6353008;27;20023;-66
2022/04/04 11:21:00;;;;;;;7.35;4.53;;;;;;;;;;6345396;28;20128;-66
2022/04/04 11:24:06;;;;;;;10.05;4.90;;;;;;;;;;6345458;27;20073;-67
2022/04/04 11:27:07;;;;;;;5.53;3.30;;;;;;;;;;6349884;27;20011;-67
2022/04/04 11:30:08;;;;;;;6.82;3.60;;;;;;;;;;6345167;27;20390;-66
2022/04/04 11:33:17;;;;;;;7.03;4.85;;;;;;;;;;6355171;27;20046;-66
2022/04/04 11:36:39;;;;;;;6.18;4.47;;;;;;;;;;6343826;27;20478;-66
2022/04/04 11:39:42;;;;;;;5.43;3.28;;;;;;;;;;6351475;27;20021;-66
2022/04/04 11:42:42;;;;;;;;;;;;;;;;;;6353580;27;20027;-66
2022/04/04 11:45:43;;;;;;;6.15;3.85;;;;;;;;;;6344648;27;19943;-66
2022/04/04 11:48:51;;;;;;;10.73;4.72;;;;;;;;;;6344115;27;20059;-66
2022/04/04 11:51:51;;;;;;;7.13;5.07;;;;;;;;;;6344642;28;20028;-66
2022/04/04 11:54:51;;;;;;;9.93;5.50;;;;;;;;;;6355047;27;20026;-66
2022/04/04 11:57:56;;;;;;;8.52;4.68;;;;;;;;;;6362378;27;20288;-66
2022/04/04 12:01:06;;;;;;;7.32;4.70;;;;;;;;;;6363870;27;20028;-66
2022/04/04 12:04:07;;;;;;;8.57;4.53;;;;;;;;;;6362306;27;20083;-66
2022/04/04 12:07:08;;;;;;;8.95;4.88;;;;;;;;;;6354353;27;20110;-67
2022/04/04 12:10:11;;;;;;;6.85;4.00;;;;;;;;;;6365692;27;20031;-66
2022/04/04 12:13:12;;;;;;;10.68;5.57;;;;;;;;;;6363271;27;20048;-66
2022/04/04 12:16:12;;;;;;;15.83;7.53;;;;;;;;;;6362918;27;20011;-66
2022/04/04 12:19:13;;;;;;;11.60;6.40;;;;;;;;;;6357128;27;20308;-66
2022/04/04 12:25:33;;;;;;;10.10;6.50;;;;;;;;;;6364021;27;20276;-66
2022/04/04 12:28:34;;;;;;;10.38;5.63;;;;;;;;;;6356948;27;20525;-66
2022/04/04 12:31:34;;;;;;;8.73;5.20;;;;;;;;;;6363992;27;20039;-66
2022/04/04 12:34:34;;;;;;;8.82;5.97;;;;;;;;;;6357928;27;20030;-66
2022/04/04 12:37:42;;;;;;;8.60;5.37;;;;;;;;;;6363612;27;20071;-66
2022/04/04 12:40:42;;;;;;;16.08;8.25;;;;;;;;;;6359133;27;20260;-66
2022/04/04 12:43:43;;;;;;;6.20;4.80;;;;;;;;;;6364850;27;20046;-66
2022/04/04 12:46:45;;;;;;;9.43;4.93;;;;;;;;;;6356416;27;20020;-66
2022/04/04 12:49:45;;;;;;;8.80;4.87;;;;;;;;;;6362669;27;20031;-66
2022/04/04 12:52:58;;;;;;;10.88;5.00;;;;;;;;;;6362371;27;20488;-66
2022/04/04 12:56:04;;;;;;;8.63;5.47;;;;;;;;;;6360660;27;20496;-66
2022/04/04 12:59:05;;;;;;;15.57;7.90;;;;;;;;;;6357585;27;20026;-66
2022/04/04 13:02:10;;;;;;;11.88;6.28;;;;;;;;;;6362911;27;20018;-66
2022/04/04 13:05:11;;;;;;;14.45;8.20;;;;;;;;;;6359383;27;20106;-66
2022/04/04 13:08:16;;;;;;;16.73;8.77;;;;;;;;;;6359732;27;20045;-66
2022/04/04 13:11:16;;;;;;;11.80;7.10;;;;;;;;;;6366142;27;20057;-66
2022/04/04 13:14:17;;;;;;;8.37;5.63;;;;;;;;;;6359218;27;20731;-66
2022/04/04 13:17:17;;;;;;;16.05;8.00;;;;;;;;;;6360863;27;20731;-67
2022/04/04 13:20:17;;;;;;;13.10;6.87;;;;;;;;;;6363903;27;20051;-66
2022/04/04 13:23:18;;;;;;;8.10;4.10;;;;;;;;;;6365997;27;20340;-66
2022/04/04 13:26:18;;;;;;;11.25;5.65;;;;;;;;;;6366895;27;20275;-66
2022/04/04 13:29:19;;;;;;;9.48;5.88;;;;;;;;;;6368207;27;20031;-66
2022/04/04 13:32:20;;;;;;;7.53;5.28;;;;;;;;;;6367000;27;20158;-66
2022/04/04 13:35:21;;;;;;;8.27;4.90;;;;;;;;;;6366560;27;20393;-66
2022/04/04 13:38:22;;;;;;;5.90;3.70;;;;;;;;;;6356288;27;20027;-67
2022/04/04 13:41:26;;;;;;;13.48;6.60;;;;;;;;;;6352242;27;20796;-67
2022/04/04 13:44:26;;;;;;;9.02;4.68;;;;;;;;;;6341518;28;20031;-66
2022/04/04 13:47:26;;;;;;;17.93;7.97;;;;;;;;;;6344260;28;20100;-66
2022/04/04 13:50:26;;;;;;;7.22;3.90;;;;;;;;;;6346401;28;20708;-66
2022/04/04 13:53:27;;;;;;;10.77;5.87;;;;;;;;;;6346602;28;20034;-66
2022/04/04 13:56:29;;;;;;;10.77;6.32;;;;;;;;;;6365426;28;20284;-66
2022/04/04 13:59:30;;;;;;;;;;;;;;;;;;6365311;28;20023;-66
2022/04/04 14:02:30;;;;;;;11.77;6.03;;;;;;;;;;6361516;28;20373;-66
2022/04/04 14:05:30;;;;;;;10.00;5.77;;;;;;;;;;6361517;28;20422;-66
2022/04/04 14:08:31;;;;;;;12.27;6.53;;;;;;;;;;6359196;28;20280;-66
2022/04/04 14:11:32;;;;;;;11.05;5.95;;;;;;;;;;6350541;28;20272;-66
2022/04/04 14:14:33;;;;;;;8.75;5.47;;;;;;;;;;6357628;28;20011;-66
2022/04/04 14:17:36;;;;;;;7.57;4.85;;;;;;;;;;6349627;28;20070;-66
2022/04/04 14:20:37;;;;;;;13.45;6.35;;;;;;;;;;6356136;28;20023;-66
2022/04/04 14:23:37;;;;;;;12.98;5.93;;;;;;;;;;6359096;28;20027;-66
2022/04/04 14:26:37;;;;;;;7.13;4.80;;;;;;;;;;6360862;27;20020;-66
2022/04/04 14:29:37;;;;;;;8.88;3.95;;;;;;;;;;6368721;27;20027;-66
2022/04/04 14:32:42;;;;;;;9.67;6.00;;;;;;;;;;6336045;27;20055;-66
2022/04/04 14:35:42;;;;;;;11.43;5.80;;;;;;;;;;6363671;27;20355;-66
2022/04/04 14:38:43;;;;;;;16.05;7.35;;;;;;;;;;6362465;27;20443;-66
2022/04/04 14:41:43;;;;;;;13.43;6.57;;;;;;;;;;6362030;27;20019;-66
2022/04/04 14:44:48;;;;;;;12.20;6.50;;;;;;;;;;6366547;27;20491;-66
2022/04/04 14:47:49;;;;;;;8.10;5.43;;;;;;;;;;6371709;27;20054;-67
2022/04/04 14:50:49;;;;;;;13.33;6.50;;;;;;;;;;6371188;27;20545;-66
2022/04/04 14:53:49;;;;;;;9.17;5.20;;;;;;;;;;6371803;27;20295;-66
2022/04/04 14:56:49;;;;;;;6.63;4.77;;;;;;;;;;6360576;27;20296;-66
2022/04/04 14:59:49;;;;;;;8.32;4.88;;;;;;;;;;6351652;27;20315;-66
2022/04/04 15:02:50;;;;;;;8.03;5.10;;;;;;;;;;6347909;27;20019;-66
2022/04/04 15:05:50;;;;;;;9.82;5.07;;;;;;;;;;6348199;27;20261;-66
2022/04/04 15:08:50;;;;;;;8.57;4.95;;;;;;;;;;6345698;27;20024;-66
2022/04/04 15:11:51;;;;;;;8.18;4.45;;;;;;;;;;6359531;27;20031;-66
2022/04/04 15:14:51;;;;;;;10.25;6.80;;;;;;;;;;6361587;27;20042;-66
2022/04/04 15:17:51;;;;;;;11.57;5.57;;;;;;;;;;6359650;27;20031;-66
2022/04/04 15:20:52;;;;;;;17.58;7.88;;;;;;;;;;6364904;27;20306;-66
2022/04/04 15:23:52;;;;;;;10.68;5.20;;;;;;;;;;6368474;27;20031;-66
2022/04/04 15:26:52;;;;;;;14.00;4.55;;;;;;;;;;6353444;27;20051;-66
2022/04/04 15:29:53;;;;;;;9.23;5.73;;;;;;;;;;6360023;27;20023;-66
2022/04/04 15:32:53;;;;;;;12.38;4.55;;;;;;;;;;6366493;27;20297;-66
2022/04/04 15:35:53;;;;;;;11.43;5.50;;;;;;;;;;6364857;27;20034;-66
2022/04/04 15:38:54;;;;;;;8.13;4.32;;;;;;;;;;6353126;27;20265;-66
2022/04/04 15:41:56;;;;;;;6.00;3.83;;;;;;;;;;6354611;27;20016;-66
2022/04/04 15:44:59;;;;;;;13.85;5.53;;;;;;;;;;6360719;27;20149;-66
2022/04/04 15:47:59;;;;;;;7.07;4.05;;;;;;;;;;6369332;27;20454;-66
2022/04/04 15:50:59;;;;;;;13.40;7.13;;;;;;;;;;6351084;27;20019;-67
2022/04/04 15:54:00;;;;;;;6.67;3.70;;;;;;;;;;6346344;27;20027;-66
2022/04/04 15:57:00;;;;;;;7.47;3.33;;;;;;;;;;6354857;27;20304;-66
2022/04/04 16:00:01;;;;;;;7.30;3.87;;;;;;;;;;6350052;27;20016;-66
2022/04/04 16:03:01;;;;;;;8.88;4.75;;;;;;;;;;6355646;27;20289;-66
2022/04/04 16:06:03;;;;;;;8.43;5.33;;;;;;;;;;6356893;27;20027;-66
2022/04/04 16:09:04;;;;;;;8.23;4.43;;;;;;;;;;6357314;27;20248;-67
2022/04/04 16:12:04;;;;;;;9.82;5.13;;;;;;;;;;6366810;27;20495;-67
2022/04/04 16:15:05;;;;;;;10.40;5.65;;;;;;;;;;6362259;27;20378;-67
2022/04/04 16:18:05;;;;;;;8.02;4.78;;;;;;;;;;6357196;27;20042;-67
2022/04/04 16:21:16;;;;;;;8.23;4.80;;;;;;;;;;6363283;27;20023;-67
2022/04/04 16:24:16;;;;;;;5.38;3.30;;;;;;;;;;6356167;27;20596;-67
2022/04/04 16:27:17;;;;;;;6.30;3.60;;;;;;;;;;6361561;27;20031;-66
2022/04/04 16:30:17;;;;;;;8.75;4.80;;;;;;;;;;6354026;27;20024;-66
2022/04/04 16:33:18;;;;;;;5.65;3.45;;;;;;;;;;6345330;27;20279;-67
2022/04/04 16:36:19;;;;;;;8.00;3.33;;;;;;;;;;6341180;27;20456;-67
2022/04/04 16:39:19;;;;;;;6.18;3.45;;;;;;;;;;6341439;27;20015;-67
2022/04/04 16:42:27;;;;;;;14.13;5.82;;;;;;;;;;6343129;27;20254;-67
2022/04/04 16:45:28;;;;;;;8.35;4.53;;;;;;;;;;6322734;28;20439;-67
2022/04/04 16:48:28;;;;;;;8.43;4.23;;;;;;;;;;6340663;27;20085;-67
2022/04/04 16:51:28;;;;;;;6.00;3.58;;;;;;;;;;6350472;27;20265;-67
2022/04/04 16:54:28;;;;;;;6.10;3.83;;;;;;;;;;6359633;27;20034;-67
2022/04/04 16:57:28;;;;;;;6.03;3.50;;;;;;;;;;6356015;27;20296;-67
2022/04/04 17:00:29;;;;;;;6.67;3.20;;;;;;;;;;6363351;27;20709;-67
2022/04/04 17:03:29;;;;;;;8.95;4.68;;;;;;;;;;6352679;27;20260;-67
2022/04/04 17:06:29;;;;;;;12.73;7.72;;;;;;;;;;6354019;27;20019;-67
2022/04/04 17:09:31;;;;;;;9.52;4.43;;;;;;;;;;6352290;27;20027;-67
2022/04/04 17:12:32;;;;;;;7.63;5.13;;;;;;;;;;6355237;27;20115;-67
2022/04/04 17:15:34;;;;;;;9.40;5.10;;;;;;;;;;6355776;27;20019;-67
2022/04/04 17:18:34;;;;;;;21.67;8.90;;;;;;;;;;6357435;27;20018;-67
2022/04/04 17:21:35;;;;;;;13.38;6.25;;;;;;;;;;6361107;27;20193;-67
2022/04/04 17:24:35;;;;;;;15.70;6.90;;;;;;;;;;6362365;27;20064;-67
2022/04/04 17:27:35;;;;;;;11.27;5.60;;;;;;;;;;6361919;27;20394;-67
2022/04/04 17:30:36;;;;;;;20.60;9.20;;;;;;;;;;6357950;27;20296;-67
2022/04/04 17:33:37;;;;;;;12.45;5.13;;;;;;;;;;6359095;27;20030;-68
2022/04/04 17:36:40;;;;;;;13.20;6.00;;;;;;;;;;6363947;27;20794;-67
2022/04/04 17:39:41;;;;;;;16.88;8.13;;;;;;;;;;6361516;27;20055;-67
2022/04/04 17:42:41;;;;;;;18.02;7.47;;;;;;;;;;6362070;27;20083;-67
2022/04/04 17:45:41;;;;;;;13.70;6.97;;;;;;;;;;6361881;27;20027;-67
2022/04/04 17:48:41;;;;;;;14.23;6.57;;;;;;;;;;6362917;27;20533;-67
2022/04/04 17:51:42;;;;;;;16.08;7.65;;;;;;;;;;6362902;28;20720;-67
2022/04/04 17:54:42;;;;;;;15.05;7.82;;;;;;;;;;6365730;27;20428;-67
2022/04/04 17:57:42;;;;;;;13.52;6.47;;;;;;;;;;6366467;28;20023;-67
2022/04/04 18:00:42;;;;;;;16.57;9.03;;;;;;;;;;6367018;27;20019;-67